Terminal Aerodrome Forecast
Issued by NWS

Home | Current Version | Previous Version | Text Only | Print | Product List | Glossary On
Versions: 1 2 3 4 5 6 7 8 9 10 11 12 13 14 15 16 17 18 19
000
FTUS43 KGRB 242300
TAFCWA
TAF
KCWA 242333Z 2500/2524 32008KT P6SM BKN015 OVC025
      TEMPO 2500/2503 6SM -SN SCT015 OVC035
     FM250300 31007KT P6SM -SN BKN015 OVC025
     FM250600 27008KT P6SM BKN012 OVC020
     FM251500 23007KT P6SM SCT015 OVC022
     FM252200 19005KT P6SM BKN022 OVC090
      AMD LTD TO CLD VIS AND WIND 2503/2511=

USA.gov is the U.S. government's official web portal to all federal, state and local government web resources and services.